Unser Platzwetter:
(um das Bild zu aktualisieren oder bei unvollständig geladenem Bild den Reload-Button des Browsers drücken)

 

 
[Quelle: ADDS]
METAR
ETNN 100520Z 27004KT 9999 SCT060 02/01 Q1024 BLU+ =
ETNN 100500Z 1006/1015 25010KT 9999 NSW SCT050 BY ETGL
TAF
ETNN 100500Z 1006/1015 25010KT 9999 NSW SCT050 BY ETGL =
SR / SS: 07:23 / 15:27 UTC (Vettweiss-Soller 2019-12-10)
 

Hier gibt es ein Wetterdiagramm der letzten 7 Tage.

Hier geht es zu unserer Webcam.

Satelitenbild:

aktuelles Meteosat-Bild von www.wetterzentrale.de